sensor_id;sensor_type;location;lat;lon;timestamp;P1;durP1;ratioP1;P2;durP2;ratioP2
47021;SDS011;32779;52.264;6.154;2022-08-02T00:00:46;8.68;;;1.90;;
47021;SDS011;32779;52.264;6.154;2022-08-02T00:05:37;3.05;;;1.52;;
47021;SDS011;32779;52.264;6.154;2022-08-02T00:08:02;3.20;;;1.65;;
47021;SDS011;32779;52.264;6.154;2022-08-02T00:10:28;4.85;;;1.65;;
47021;SDS011;32779;52.264;6.154;2022-08-02T00:12:54;8.40;;;2.13;;
47021;SDS011;32779;52.264;6.154;2022-08-02T00:17:45;9.68;;;1.80;;
47021;SDS011;32779;52.264;6.154;2022-08-02T00:22:36;4.63;;;1.65;;
47021;SDS011;32779;52.264;6.154;2022-08-02T00:27:28;5.13;;;2.10;;
47021;SDS011;32779;52.264;6.154;2022-08-02T00:29:54;7.22;;;2.20;;
47021;SDS011;32779;52.264;6.154;2022-08-02T00:34:46;4.95;;;1.70;;
47021;SDS011;32779;52.264;6.154;2022-08-02T00:39:38;5.97;;;2.38;;
47021;SDS011;32779;52.264;6.154;2022-08-02T00:44:29;4.15;;;1.55;;
47021;SDS011;32779;52.264;6.154;2022-08-02T00:49:20;5.45;;;2.17;;
47021;SDS011;32779;52.264;6.154;2022-08-02T00:51:46;4.07;;;2.00;;
47021;SDS011;32779;52.264;6.154;2022-08-02T00:56:38;4.57;;;1.70;;
47021;SDS011;32779;52.264;6.154;2022-08-02T01:01:29;4.65;;;1.80;;
47021;SDS011;32779;52.264;6.154;2022-08-02T01:04:08;4.82;;;1.80;;
47021;SDS011;32779;52.264;6.154;2022-08-02T01:06:36;7.35;;;2.30;;
47021;SDS011;32779;52.264;6.154;2022-08-02T01:09:04;6.95;;;1.70;;
47021;SDS011;32779;52.264;6.154;2022-08-02T01:11:31;6.18;;;1.85;;
47021;SDS011;32779;52.264;6.154;2022-08-02T01:13:58;5.00;;;1.83;;
47021;SDS011;32779;52.264;6.154;2022-08-02T01:16:38;5.78;;;1.98;;
47021;SDS011;32779;52.264;6.154;2022-08-02T01:19:33;4.85;;;1.70;;
47021;SDS011;32779;52.264;6.154;2022-08-02T01:22:12;6.38;;;2.17;;
47021;SDS011;32779;52.264;6.154;2022-08-02T01:30:24;3.55;;;1.88;;
47021;SDS011;32779;52.264;6.154;2022-08-02T01:32:52;4.55;;;1.75;;
47021;SDS011;32779;52.264;6.154;2022-08-02T01:35:27;6.47;;;2.28;;
47021;SDS011;32779;52.264;6.154;2022-08-02T01:38:13;10.60;;;3.17;;
47021;SDS011;32779;52.264;6.154;2022-08-02T01:40:45;5.65;;;2.65;;
47021;SDS011;32779;52.264;6.154;2022-08-02T01:43:13;4.07;;;2.65;;
47021;SDS011;32779;52.264;6.154;2022-08-02T01:45:41;7.30;;;2.47;;
47021;SDS011;32779;52.264;6.154;2022-08-02T01:48:09;9.55;;;2.90;;
47021;SDS011;32779;52.264;6.154;2022-08-02T01:50:38;5.25;;;2.90;;
47021;SDS011;32779;52.264;6.154;2022-08-02T01:53:05;8.13;;;3.30;;
47021;SDS011;32779;52.264;6.154;2022-08-02T01:55:34;8.18;;;2.85;;
47021;SDS011;32779;52.264;6.154;2022-08-02T01:58:04;5.78;;;3.15;;
47021;SDS011;32779;52.264;6.154;2022-08-02T02:00:32;8.60;;;2.88;;
47021;SDS011;32779;52.264;6.154;2022-08-02T02:03:02;6.55;;;2.67;;
47021;SDS011;32779;52.264;6.154;2022-08-02T02:05:30;5.85;;;2.63;;
47021;SDS011;32779;52.264;6.154;2022-08-02T02:07:57;10.52;;;2.95;;
47021;SDS011;32779;52.264;6.154;2022-08-02T02:10:27;5.47;;;3.15;;
47021;SDS011;32779;52.264;6.154;2022-08-02T02:12:55;9.88;;;3.17;;
47021;SDS011;32779;52.264;6.154;2022-08-02T02:15:25;7.55;;;3.00;;
47021;SDS011;32779;52.264;6.154;2022-08-02T02:17:52;7.05;;;2.60;;
47021;SDS011;32779;52.264;6.154;2022-08-02T02:20:19;8.60;;;2.67;;
47021;SDS011;32779;52.264;6.154;2022-08-02T02:22:46;7.63;;;3.30;;
47021;SDS011;32779;52.264;6.154;2022-08-02T02:25:13;9.80;;;3.67;;
47021;SDS011;32779;52.264;6.154;2022-08-02T02:27:51;7.10;;;2.78;;
47021;SDS011;32779;52.264;6.154;2022-08-02T02:30:20;9.23;;;3.08;;
47021;SDS011;32779;52.264;6.154;2022-08-02T02:32:49;4.93;;;2.80;;
47021;SDS011;32779;52.264;6.154;2022-08-02T02:35:19;6.80;;;3.08;;
47021;SDS011;32779;52.264;6.154;2022-08-02T02:37:47;7.18;;;2.97;;
47021;SDS011;32779;52.264;6.154;2022-08-02T02:40:15;8.60;;;3.47;;
47021;SDS011;32779;52.264;6.154;2022-08-02T02:42:41;7.10;;;2.92;;
47021;SDS011;32779;52.264;6.154;2022-08-02T02:45:10;8.48;;;2.95;;
47021;SDS011;32779;52.264;6.154;2022-08-02T02:47:36;5.55;;;2.83;;
47021;SDS011;32779;52.264;6.154;2022-08-02T02:50:03;7.18;;;3.03;;
47021;SDS011;32779;52.264;6.154;2022-08-02T02:52:29;6.28;;;2.92;;
47021;SDS011;32779;52.264;6.154;2022-08-02T02:54:56;11.35;;;2.83;;
47021;SDS011;32779;52.264;6.154;2022-08-02T02:57:23;6.43;;;2.55;;
47021;SDS011;32779;52.264;6.154;2022-08-02T03:02:15;7.32;;;2.80;;
47021;SDS011;32779;52.264;6.154;2022-08-02T03:04:42;6.50;;;2.80;;
47021;SDS011;32779;52.264;6.154;2022-08-02T03:07:09;6.05;;;2.70;;
47021;SDS011;32779;52.264;6.154;2022-08-02T03:09:34;5.75;;;2.75;;
47021;SDS011;32779;52.264;6.154;2022-08-02T03:14:26;6.07;;;2.90;;
47021;SDS011;32779;52.264;6.154;2022-08-02T03:19:20;5.57;;;2.67;;
47021;SDS011;32779;52.264;6.154;2022-08-02T03:21:47;5.28;;;2.90;;
47021;SDS011;32779;52.264;6.154;2022-08-02T03:24:14;6.95;;;2.65;;
47021;SDS011;32779;52.264;6.154;2022-08-02T03:29:06;9.30;;;3.08;;
47021;SDS011;32779;52.264;6.154;2022-08-02T03:31:32;7.20;;;2.47;;
47021;SDS011;32779;52.264;6.154;2022-08-02T03:33:59;9.70;;;2.92;;
47021;SDS011;32779;52.264;6.154;2022-08-02T03:36:27;6.53;;;2.65;;
47021;SDS011;32779;52.264;6.154;2022-08-02T03:38:55;7.82;;;2.60;;
47021;SDS011;32779;52.264;6.154;2022-08-02T03:41:23;4.18;;;2.55;;
47021;SDS011;32779;52.264;6.154;2022-08-02T03:43:49;5.82;;;2.80;;
47021;SDS011;32779;52.264;6.154;2022-08-02T03:46:17;5.32;;;2.83;;
47021;SDS011;32779;52.264;6.154;2022-08-02T03:48:45;7.70;;;2.63;;
47021;SDS011;32779;52.264;6.154;2022-08-02T03:51:12;7.55;;;3.00;;
47021;SDS011;32779;52.264;6.154;2022-08-02T03:53:38;5.75;;;2.72;;
47021;SDS011;32779;52.264;6.154;2022-08-02T03:56:04;7.80;;;2.55;;
47021;SDS011;32779;52.264;6.154;2022-08-02T03:58:30;6.60;;;2.80;;
47021;SDS011;32779;52.264;6.154;2022-08-02T04:03:23;5.63;;;2.47;;
47021;SDS011;32779;52.264;6.154;2022-08-02T04:05:50;5.40;;;3.08;;
47021;SDS011;32779;52.264;6.154;2022-08-02T04:08:15;6.13;;;3.08;;
47021;SDS011;32779;52.264;6.154;2022-08-02T04:10:41;4.90;;;2.80;;
47021;SDS011;32779;52.264;6.154;2022-08-02T04:13:27;5.38;;;2.80;;
47021;SDS011;32779;52.264;6.154;2022-08-02T04:15:57;3.03;;;2.17;;
47021;SDS011;32779;52.264;6.154;2022-08-02T04:18:29;4.10;;;2.25;;
47021;SDS011;32779;52.264;6.154;2022-08-02T04:21:01;9.82;;;2.67;;
47021;SDS011;32779;52.264;6.154;2022-08-02T04:23:30;4.53;;;2.15;;
47021;SDS011;32779;52.264;6.154;2022-08-02T04:25:57;8.35;;;2.40;;
47021;SDS011;32779;52.264;6.154;2022-08-02T04:28:24;7.20;;;2.40;;
47021;SDS011;32779;52.264;6.154;2022-08-02T04:33:16;6.38;;;2.72;;
47021;SDS011;32779;52.264;6.154;2022-08-02T04:35:42;5.78;;;2.25;;
47021;SDS011;32779;52.264;6.154;2022-08-02T04:38:09;4.35;;;2.50;;
47021;SDS011;32779;52.264;6.154;2022-08-02T04:40:38;8.30;;;2.30;;
47021;SDS011;32779;52.264;6.154;2022-08-02T04:43:03;12.90;;;2.67;;
47021;SDS011;32779;52.264;6.154;2022-08-02T04:47:55;6.40;;;2.53;;
47021;SDS011;32779;52.264;6.154;2022-08-02T04:50:20;5.40;;;2.38;;
47021;SDS011;32779;52.264;6.154;2022-08-02T04:55:11;3.67;;;2.10;;
47021;SDS011;32779;52.264;6.154;2022-08-02T05:00:22;7.80;;;3.20;;
47021;SDS011;32779;52.264;6.154;2022-08-02T05:02:48;7.13;;;2.67;;
47021;SDS011;32779;52.264;6.154;2022-08-02T05:05:15;5.50;;;2.35;;
47021;SDS011;32779;52.264;6.154;2022-08-02T05:07:41;6.38;;;2.95;;
47021;SDS011;32779;52.264;6.154;2022-08-02T05:10:06;3.88;;;2.47;;
47021;SDS011;32779;52.264;6.154;2022-08-02T05:14:58;7.53;;;3.00;;
47021;SDS011;32779;52.264;6.154;2022-08-02T05:19:49;5.93;;;2.80;;
47021;SDS011;32779;52.264;6.154;2022-08-02T05:24:40;8.85;;;2.78;;
47021;SDS011;32779;52.264;6.154;2022-08-02T05:29:31;6.85;;;2.78;;
47021;SDS011;32779;52.264;6.154;2022-08-02T05:34:22;3.80;;;2.67;;
47021;SDS011;32779;52.264;6.154;2022-08-02T05:36:47;8.60;;;3.20;;
47021;SDS011;32779;52.264;6.154;2022-08-02T05:41:38;6.10;;;2.80;;
47021;SDS011;32779;52.264;6.154;2022-08-02T05:46:29;7.68;;;2.85;;
47021;SDS011;32779;52.264;6.154;2022-08-02T05:54:09;6.60;;;3.13;;
47021;SDS011;32779;52.264;6.154;2022-08-02T05:56:45;7.93;;;2.63;;
47021;SDS011;32779;52.264;6.154;2022-08-02T05:59:31;8.25;;;3.05;;
47021;SDS011;32779;52.264;6.154;2022-08-02T06:02:02;5.63;;;2.75;;
47021;SDS011;32779;52.264;6.154;2022-08-02T06:04:40;4.97;;;2.72;;
47021;SDS011;32779;52.264;6.154;2022-08-02T06:07:17;9.40;;;2.97;;
47021;SDS011;32779;52.264;6.154;2022-08-02T06:09:46;10.40;;;3.25;;
47021;SDS011;32779;52.264;6.154;2022-08-02T06:12:13;10.40;;;2.88;;
47021;SDS011;32779;52.264;6.154;2022-08-02T06:14:41;6.38;;;2.60;;
47021;SDS011;32779;52.264;6.154;2022-08-02T06:17:07;7.78;;;3.13;;
47021;SDS011;32779;52.264;6.154;2022-08-02T06:22:01;8.07;;;3.00;;
47021;SDS011;32779;52.264;6.154;2022-08-02T06:24:40;5.55;;;2.80;;
47021;SDS011;32779;52.264;6.154;2022-08-02T06:27:08;5.65;;;2.95;;
47021;SDS011;32779;52.264;6.154;2022-08-02T06:29:39;12.07;;;3.30;;
47021;SDS011;32779;52.264;6.154;2022-08-02T06:32:06;12.13;;;2.97;;
47021;SDS011;32779;52.264;6.154;2022-08-02T06:34:36;12.32;;;3.28;;
47021;SDS011;32779;52.264;6.154;2022-08-02T06:37:18;10.85;;;3.47;;
47021;SDS011;32779;52.264;6.154;2022-08-02T06:40:20;10.23;;;3.35;;
47021;SDS011;32779;52.264;6.154;2022-08-02T06:45:37;6.60;;;3.40;;
47021;SDS011;32779;52.264;6.154;2022-08-02T06:48:04;5.13;;;3.22;;
47021;SDS011;32779;52.264;6.154;2022-08-02T06:50:31;10.55;;;3.17;;
47021;SDS011;32779;52.264;6.154;2022-08-02T06:55:25;7.45;;;3.42;;
47021;SDS011;32779;52.264;6.154;2022-08-02T06:57:53;13.05;;;3.83;;
47021;SDS011;32779;52.264;6.154;2022-08-02T07:02:44;12.50;;;3.08;;
47021;SDS011;32779;52.264;6.154;2022-08-02T07:05:09;9.60;;;3.40;;
47021;SDS011;32779;52.264;6.154;2022-08-02T07:07:35;7.00;;;3.35;;
47021;SDS011;32779;52.264;6.154;2022-08-02T07:10:03;6.07;;;3.35;;
47021;SDS011;32779;52.264;6.154;2022-08-02T07:12:31;7.55;;;3.20;;
47021;SDS011;32779;52.264;6.154;2022-08-02T07:14:58;7.00;;;3.00;;
47021;SDS011;32779;52.264;6.154;2022-08-02T07:17:24;9.73;;;3.25;;
47021;SDS011;32779;52.264;6.154;2022-08-02T07:19:50;9.45;;;3.47;;
47021;SDS011;32779;52.264;6.154;2022-08-02T07:22:16;16.30;;;3.45;;
47021;SDS011;32779;52.264;6.154;2022-08-02T07:24:43;13.07;;;3.20;;
47021;SDS011;32779;52.264;6.154;2022-08-02T07:27:09;5.80;;;3.00;;
47021;SDS011;32779;52.264;6.154;2022-08-02T07:29:34;10.13;;;3.50;;
47021;SDS011;32779;52.264;6.154;2022-08-02T07:32:00;9.98;;;3.08;;
47021;SDS011;32779;52.264;6.154;2022-08-02T07:34:26;5.00;;;3.15;;
47021;SDS011;32779;52.264;6.154;2022-08-02T07:36:51;7.70;;;3.15;;
47021;SDS011;32779;52.264;6.154;2022-08-02T07:39:17;11.18;;;3.70;;
47021;SDS011;32779;52.264;6.154;2022-08-02T07:41:42;7.28;;;2.90;;
47021;SDS011;32779;52.264;6.154;2022-08-02T07:44:10;9.75;;;4.18;;
47021;SDS011;32779;52.264;6.154;2022-08-02T07:46:36;4.80;;;2.60;;
47021;SDS011;32779;52.264;6.154;2022-08-02T07:49:01;5.35;;;3.00;;
47021;SDS011;32779;52.264;6.154;2022-08-02T07:51:27;9.38;;;3.33;;
47021;SDS011;32779;52.264;6.154;2022-08-02T07:53:55;6.05;;;2.72;;
47021;SDS011;32779;52.264;6.154;2022-08-02T07:56:20;11.15;;;3.03;;
47021;SDS011;32779;52.264;6.154;2022-08-02T07:58:46;7.72;;;3.30;;
47021;SDS011;32779;52.264;6.154;2022-08-02T08:01:12;7.47;;;2.80;;
47021;SDS011;32779;52.264;6.154;2022-08-02T08:03:37;8.23;;;2.63;;
47021;SDS011;32779;52.264;6.154;2022-08-02T08:06:05;5.07;;;2.53;;
47021;SDS011;32779;52.264;6.154;2022-08-02T08:08:32;6.95;;;3.17;;
47021;SDS011;32779;52.264;6.154;2022-08-02T08:10:58;10.07;;;2.83;;
47021;SDS011;32779;52.264;6.154;2022-08-02T08:13:24;5.53;;;2.28;;
47021;SDS011;32779;52.264;6.154;2022-08-02T08:15:50;6.03;;;2.10;;
47021;SDS011;32779;52.264;6.154;2022-08-02T08:18:15;6.32;;;2.55;;
47021;SDS011;32779;52.264;6.154;2022-08-02T08:20:41;11.27;;;2.38;;
47021;SDS011;32779;52.264;6.154;2022-08-02T08:23:06;4.72;;;2.08;;
47021;SDS011;32779;52.264;6.154;2022-08-02T08:25:32;7.20;;;1.92;;
47021;SDS011;32779;52.264;6.154;2022-08-02T08:27:57;6.43;;;2.25;;
47021;SDS011;32779;52.264;6.154;2022-08-02T08:30:23;5.28;;;2.60;;
47021;SDS011;32779;52.264;6.154;2022-08-02T08:32:49;3.90;;;1.98;;
47021;SDS011;32779;52.264;6.154;2022-08-02T08:35:15;7.35;;;2.20;;
47021;SDS011;32779;52.264;6.154;2022-08-02T08:37:41;2.47;;;1.70;;
47021;SDS011;32779;52.264;6.154;2022-08-02T08:40:07;3.80;;;1.73;;
47021;SDS011;32779;52.264;6.154;2022-08-02T08:42:35;4.25;;;2.20;;
47021;SDS011;32779;52.264;6.154;2022-08-02T08:45:02;4.20;;;1.80;;
47021;SDS011;32779;52.264;6.154;2022-08-02T08:50:05;2.75;;;1.83;;
47021;SDS011;32779;52.264;6.154;2022-08-02T08:52:39;5.88;;;2.00;;
47021;SDS011;32779;52.264;6.154;2022-08-02T08:55:07;4.50;;;1.90;;
47021;SDS011;32779;52.264;6.154;2022-08-02T08:57:35;4.13;;;1.95;;
47021;SDS011;32779;52.264;6.154;2022-08-02T09:00:04;4.05;;;1.70;;
47021;SDS011;32779;52.264;6.154;2022-08-02T09:02:31;5.15;;;1.73;;
47021;SDS011;32779;52.264;6.154;2022-08-02T09:05:01;5.50;;;2.13;;
47021;SDS011;32779;52.264;6.154;2022-08-02T09:07:27;4.30;;;2.00;;
47021;SDS011;32779;52.264;6.154;2022-08-02T09:09:52;3.15;;;1.60;;
47021;SDS011;32779;52.264;6.154;2022-08-02T09:12:19;4.70;;;2.30;;
47021;SDS011;32779;52.264;6.154;2022-08-02T09:14:49;6.72;;;1.85;;
47021;SDS011;32779;52.264;6.154;2022-08-02T09:17:15;3.15;;;2.03;;
47021;SDS011;32779;52.264;6.154;2022-08-02T09:19:40;5.40;;;1.95;;
47021;SDS011;32779;52.264;6.154;2022-08-02T09:22:07;4.00;;;1.80;;
47021;SDS011;32779;52.264;6.154;2022-08-02T09:24:44;3.92;;;1.67;;
47021;SDS011;32779;52.264;6.154;2022-08-02T09:27:12;3.80;;;1.73;;
47021;SDS011;32779;52.264;6.154;2022-08-02T09:29:39;3.42;;;2.15;;
47021;SDS011;32779;52.264;6.154;2022-08-02T09:32:06;3.33;;;1.73;;
47021;SDS011;32779;52.264;6.154;2022-08-02T09:34:51;3.47;;;1.38;;
47021;SDS011;32779;52.264;6.154;2022-08-02T09:37:27;3.37;;;1.33;;
47021;SDS011;32779;52.264;6.154;2022-08-02T09:39:55;2.95;;;1.60;;
47021;SDS011;32779;52.264;6.154;2022-08-02T09:42:26;4.15;;;1.60;;
47021;SDS011;32779;52.264;6.154;2022-08-02T09:44:56;3.08;;;1.45;;
47021;SDS011;32779;52.264;6.154;2022-08-02T09:47:24;3.15;;;1.52;;
47021;SDS011;32779;52.264;6.154;2022-08-02T09:49:52;5.53;;;1.40;;
47021;SDS011;32779;52.264;6.154;2022-08-02T09:52:26;3.10;;;1.10;;
47021;SDS011;32779;52.264;6.154;2022-08-02T09:55:01;3.08;;;1.10;;
47021;SDS011;32779;52.264;6.154;2022-08-02T09:57:30;0.85;;;0.80;;
47021;SDS011;32779;52.264;6.154;2022-08-02T09:59:57;5.97;;;1.17;;
47021;SDS011;32779;52.264;6.154;2022-08-02T10:02:24;1.58;;;0.93;;
47021;SDS011;32779;52.264;6.154;2022-08-02T10:04:50;2.72;;;1.13;;
47021;SDS011;32779;52.264;6.154;2022-08-02T10:07:16;1.65;;;1.00;;
47021;SDS011;32779;52.264;6.154;2022-08-02T10:09:42;2.67;;;1.10;;
47021;SDS011;32779;52.264;6.154;2022-08-02T10:12:10;2.15;;;1.40;;
47021;SDS011;32779;52.264;6.154;2022-08-02T10:14:36;3.65;;;1.40;;
47021;SDS011;32779;52.264;6.154;2022-08-02T10:17:02;3.17;;;1.05;;
47021;SDS011;32779;52.264;6.154;2022-08-02T10:19:29;2.10;;;1.20;;
47021;SDS011;32779;52.264;6.154;2022-08-02T10:21:55;3.60;;;1.40;;
47021;SDS011;32779;52.264;6.154;2022-08-02T10:24:29;2.60;;;1.02;;
47021;SDS011;32779;52.264;6.154;2022-08-02T10:26:57;2.55;;;1.13;;
47021;SDS011;32779;52.264;6.154;2022-08-02T10:29:42;2.85;;;1.40;;
47021;SDS011;32779;52.264;6.154;2022-08-02T10:32:15;2.42;;;1.60;;
47021;SDS011;32779;52.264;6.154;2022-08-02T10:34:51;2.95;;;1.60;;
47021;SDS011;32779;52.264;6.154;2022-08-02T10:37:19;7.43;;;1.60;;
47021;SDS011;32779;52.264;6.154;2022-08-02T10:39:47;2.85;;;1.70;;
47021;SDS011;32779;52.264;6.154;2022-08-02T10:42:42;1.73;;;1.33;;
47021;SDS011;32779;52.264;6.154;2022-08-02T10:45:09;4.60;;;1.77;;
47021;SDS011;32779;52.264;6.154;2022-08-02T10:47:36;3.72;;;1.25;;
47021;SDS011;32779;52.264;6.154;2022-08-02T10:50:02;2.75;;;1.35;;
47021;SDS011;32779;52.264;6.154;2022-08-02T10:52:28;3.53;;;1.55;;
47021;SDS011;32779;52.264;6.154;2022-08-02T10:54:56;2.55;;;1.33;;
47021;SDS011;32779;52.264;6.154;2022-08-02T10:57:28;3.70;;;1.30;;
47021;SDS011;32779;52.264;6.154;2022-08-02T11:00:12;8.15;;;1.70;;
47021;SDS011;32779;52.264;6.154;2022-08-02T11:02:50;1.17;;;1.08;;
47021;SDS011;32779;52.264;6.154;2022-08-02T11:05:28;2.20;;;1.52;;
47021;SDS011;32779;52.264;6.154;2022-08-02T11:07:53;2.15;;;1.40;;
47021;SDS011;32779;52.264;6.154;2022-08-02T11:18:16;6.60;;;1.23;;
47021;SDS011;32779;52.264;6.154;2022-08-02T11:20:42;8.50;;;1.30;;
47021;SDS011;32779;52.264;6.154;2022-08-02T11:23:32;2.65;;;1.40;;
47021;SDS011;32779;52.264;6.154;2022-08-02T11:26:00;4.57;;;1.60;;
47021;SDS011;32779;52.264;6.154;2022-08-02T11:28:29;1.60;;;1.13;;
47021;SDS011;32779;52.264;6.154;2022-08-02T11:30:55;1.50;;;1.30;;
47021;SDS011;32779;52.264;6.154;2022-08-02T11:33:27;4.50;;;1.60;;
47021;SDS011;32779;52.264;6.154;2022-08-02T11:36:02;3.78;;;1.45;;
47021;SDS011;32779;52.264;6.154;2022-08-02T11:38:30;2.45;;;1.35;;
47021;SDS011;32779;52.264;6.154;2022-08-02T11:40:55;2.28;;;1.50;;
47021;SDS011;32779;52.264;6.154;2022-08-02T11:43:22;4.90;;;1.50;;
47021;SDS011;32779;52.264;6.154;2022-08-02T11:45:49;3.45;;;1.65;;
47021;SDS011;32779;52.264;6.154;2022-08-02T11:48:29;2.55;;;1.52;;
47021;SDS011;32779;52.264;6.154;2022-08-02T11:51:06;2.78;;;1.45;;
47021;SDS011;32779;52.264;6.154;2022-08-02T11:53:40;1.65;;;0.98;;
47021;SDS011;32779;52.264;6.154;2022-08-02T11:56:06;3.35;;;1.42;;
47021;SDS011;32779;52.264;6.154;2022-08-02T11:58:32;3.83;;;1.40;;
47021;SDS011;32779;52.264;6.154;2022-08-02T12:00:57;2.20;;;1.33;;
47021;SDS011;32779;52.264;6.154;2022-08-02T12:03:23;6.78;;;2.00;;
47021;SDS011;32779;52.264;6.154;2022-08-02T12:05:49;2.05;;;1.40;;
47021;SDS011;32779;52.264;6.154;2022-08-02T12:08:15;6.22;;;1.60;;
47021;SDS011;32779;52.264;6.154;2022-08-02T12:10:48;5.32;;;1.80;;
47021;SDS011;32779;52.264;6.154;2022-08-02T12:13:14;1.85;;;1.25;;
47021;SDS011;32779;52.264;6.154;2022-08-02T12:15:44;3.60;;;1.33;;
47021;SDS011;32779;52.264;6.154;2022-08-02T12:18:11;2.03;;;1.13;;
47021;SDS011;32779;52.264;6.154;2022-08-02T12:21:01;3.58;;;1.25;;
47021;SDS011;32779;52.264;6.154;2022-08-02T12:23:28;1.70;;;1.02;;
47021;SDS011;32779;52.264;6.154;2022-08-02T12:28:25;4.53;;;1.45;;
47021;SDS011;32779;52.264;6.154;2022-08-02T12:30:51;2.78;;;1.13;;
47021;SDS011;32779;52.264;6.154;2022-08-02T12:33:19;4.82;;;1.60;;
47021;SDS011;32779;52.264;6.154;2022-08-02T12:35:46;3.13;;;1.63;;
47021;SDS011;32779;52.264;6.154;2022-08-02T12:38:12;3.47;;;1.55;;
47021;SDS011;32779;52.264;6.154;2022-08-02T12:40:38;2.53;;;1.60;;
47021;SDS011;32779;52.264;6.154;2022-08-02T12:43:05;3.47;;;1.38;;
47021;SDS011;32779;52.264;6.154;2022-08-02T12:45:48;1.33;;;1.08;;
47021;SDS011;32779;52.264;6.154;2022-08-02T12:48:30;4.63;;;1.15;;
47021;SDS011;32779;52.264;6.154;2022-08-02T12:51:20;2.83;;;1.33;;
47021;SDS011;32779;52.264;6.154;2022-08-02T12:53:54;2.60;;;1.15;;
47021;SDS011;32779;52.264;6.154;2022-08-02T12:56:36;1.90;;;1.30;;
47021;SDS011;32779;52.264;6.154;2022-08-02T12:59:02;3.20;;;1.20;;
47021;SDS011;32779;52.264;6.154;2022-08-02T13:01:29;1.70;;;1.30;;
47021;SDS011;32779;52.264;6.154;2022-08-02T13:03:55;2.30;;;1.40;;
47021;SDS011;32779;52.264;6.154;2022-08-02T13:06:21;1.45;;;1.10;;
47021;SDS011;32779;52.264;6.154;2022-08-02T13:08:48;1.63;;;0.90;;
47021;SDS011;32779;52.264;6.154;2022-08-02T13:11:14;3.10;;;1.10;;
47021;SDS011;32779;52.264;6.154;2022-08-02T13:13:40;2.28;;;1.23;;
47021;SDS011;32779;52.264;6.154;2022-08-02T13:16:05;1.35;;;0.93;;
47021;SDS011;32779;52.264;6.154;2022-08-02T13:18:32;1.17;;;0.90;;
47021;SDS011;32779;52.264;6.154;2022-08-02T13:20:58;0.80;;;0.80;;
47021;SDS011;32779;52.264;6.154;2022-08-02T13:23:24;4.60;;;0.88;;
47021;SDS011;32779;52.264;6.154;2022-08-02T13:25:50;2.17;;;1.00;;
47021;SDS011;32779;52.264;6.154;2022-08-02T13:28:17;2.83;;;1.20;;
47021;SDS011;32779;52.264;6.154;2022-08-02T13:30:42;1.05;;;0.90;;
47021;SDS011;32779;52.264;6.154;2022-08-02T13:33:10;1.67;;;1.15;;
47021;SDS011;32779;52.264;6.154;2022-08-02T13:35:35;1.17;;;0.70;;
47021;SDS011;32779;52.264;6.154;2022-08-02T13:38:01;2.47;;;1.00;;
47021;SDS011;32779;52.264;6.154;2022-08-02T13:40:28;1.30;;;0.98;;
47021;SDS011;32779;52.264;6.154;2022-08-02T13:42:54;1.35;;;0.82;;
47021;SDS011;32779;52.264;6.154;2022-08-02T13:45:19;1.67;;;0.98;;
47021;SDS011;32779;52.264;6.154;2022-08-02T13:47:45;2.00;;;1.10;;
47021;SDS011;32779;52.264;6.154;2022-08-02T13:50:11;1.33;;;0.80;;
47021;SDS011;32779;52.264;6.154;2022-08-02T13:52:36;1.80;;;1.15;;
47021;SDS011;32779;52.264;6.154;2022-08-02T13:55:02;2.85;;;0.77;;
47021;SDS011;32779;52.264;6.154;2022-08-02T13:57:28;1.85;;;0.85;;
47021;SDS011;32779;52.264;6.154;2022-08-02T13:59:54;2.95;;;1.02;;
47021;SDS011;32779;52.264;6.154;2022-08-02T14:02:19;0.80;;;0.70;;
47021;SDS011;32779;52.264;6.154;2022-08-02T14:04:45;1.52;;;0.63;;
47021;SDS011;32779;52.264;6.154;2022-08-02T14:07:10;1.80;;;1.00;;
47021;SDS011;32779;52.264;6.154;2022-08-02T14:09:36;5.18;;;0.70;;
47021;SDS011;32779;52.264;6.154;2022-08-02T14:12:02;2.40;;;0.90;;
47021;SDS011;32779;52.264;6.154;2022-08-02T14:14:31;1.25;;;0.90;;
47021;SDS011;32779;52.264;6.154;2022-08-02T14:16:57;1.85;;;0.80;;
47021;SDS011;32779;52.264;6.154;2022-08-02T14:19:22;4.47;;;0.90;;
47021;SDS011;32779;52.264;6.154;2022-08-02T14:21:48;1.23;;;0.80;;
47021;SDS011;32779;52.264;6.154;2022-08-02T14:24:15;1.73;;;1.10;;
47021;SDS011;32779;52.264;6.154;2022-08-02T14:26:43;1.02;;;0.73;;
47021;SDS011;32779;52.264;6.154;2022-08-02T14:29:12;5.18;;;0.77;;
47021;SDS011;32779;52.264;6.154;2022-08-02T14:31:38;3.90;;;0.60;;
47021;SDS011;32779;52.264;6.154;2022-08-02T14:34:04;1.55;;;0.80;;
47021;SDS011;32779;52.264;6.154;2022-08-02T14:36:30;1.45;;;0.80;;
47021;SDS011;32779;52.264;6.154;2022-08-02T14:38:55;3.13;;;0.75;;
47021;SDS011;32779;52.264;6.154;2022-08-02T14:41:21;3.60;;;0.90;;
47021;SDS011;32779;52.264;6.154;2022-08-02T14:43:47;0.70;;;0.70;;
47021;SDS011;32779;52.264;6.154;2022-08-02T14:46:28;0.70;;;0.47;;
47021;SDS011;32779;52.264;6.154;2022-08-02T14:48:54;3.67;;;0.93;;
47021;SDS011;32779;52.264;6.154;2022-08-02T14:51:19;1.98;;;0.70;;
47021;SDS011;32779;52.264;6.154;2022-08-02T14:53:45;2.08;;;0.95;;
47021;SDS011;32779;52.264;6.154;2022-08-02T14:56:11;3.05;;;0.70;;
47021;SDS011;32779;52.264;6.154;2022-08-02T14:58:36;3.13;;;0.90;;
47021;SDS011;32779;52.264;6.154;2022-08-02T15:01:02;3.30;;;0.65;;
47021;SDS011;32779;52.264;6.154;2022-08-02T15:03:28;3.63;;;0.80;;
47021;SDS011;32779;52.264;6.154;2022-08-02T15:05:53;3.20;;;0.80;;
47021;SDS011;32779;52.264;6.154;2022-08-02T15:08:19;2.40;;;0.63;;
47021;SDS011;32779;52.264;6.154;2022-08-02T15:10:45;2.92;;;0.45;;
47021;SDS011;32779;52.264;6.154;2022-08-02T15:13:10;0.77;;;0.75;;
47021;SDS011;32779;52.264;6.154;2022-08-02T15:15:36;0.95;;;0.80;;
47021;SDS011;32779;52.264;6.154;2022-08-02T15:18:02;1.88;;;1.15;;
47021;SDS011;32779;52.264;6.154;2022-08-02T15:20:28;1.40;;;0.75;;
47021;SDS011;32779;52.264;6.154;2022-08-02T15:22:53;2.10;;;0.95;;
47021;SDS011;32779;52.264;6.154;2022-08-02T15:25:19;1.25;;;0.80;;
47021;SDS011;32779;52.264;6.154;2022-08-02T15:27:45;1.52;;;0.70;;
47021;SDS011;32779;52.264;6.154;2022-08-02T15:30:11;3.45;;;0.77;;
47021;SDS011;32779;52.264;6.154;2022-08-02T15:32:36;2.92;;;0.85;;
47021;SDS011;32779;52.264;6.154;2022-08-02T15:35:02;2.00;;;1.20;;
47021;SDS011;32779;52.264;6.154;2022-08-02T15:37:28;1.50;;;0.80;;
47021;SDS011;32779;52.264;6.154;2022-08-02T15:39:56;0.98;;;0.65;;
47021;SDS011;32779;52.264;6.154;2022-08-02T15:42:24;1.70;;;0.80;;
47021;SDS011;32779;52.264;6.154;2022-08-02T15:44:50;1.67;;;0.57;;
47021;SDS011;32779;52.264;6.154;2022-08-02T15:47:15;3.17;;;0.95;;
47021;SDS011;32779;52.264;6.154;2022-08-02T15:49:41;2.85;;;0.75;;
47021;SDS011;32779;52.264;6.154;2022-08-02T15:52:11;1.15;;;0.60;;
47021;SDS011;32779;52.264;6.154;2022-08-02T15:54:36;2.45;;;0.82;;
47021;SDS011;32779;52.264;6.154;2022-08-02T15:57:02;2.30;;;1.00;;
47021;SDS011;32779;52.264;6.154;2022-08-02T15:59:28;2.55;;;0.50;;
47021;SDS011;32779;52.264;6.154;2022-08-02T16:01:53;1.20;;;0.77;;
47021;SDS011;32779;52.264;6.154;2022-08-02T16:04:19;5.55;;;1.33;;
47021;SDS011;32779;52.264;6.154;2022-08-02T16:06:44;1.30;;;0.80;;
47021;SDS011;32779;52.264;6.154;2022-08-02T16:09:10;2.00;;;0.90;;
47021;SDS011;32779;52.264;6.154;2022-08-02T16:11:36;5.30;;;1.25;;
47021;SDS011;32779;52.264;6.154;2022-08-02T16:14:05;3.20;;;1.73;;
47021;SDS011;32779;52.264;6.154;2022-08-02T16:16:31;3.67;;;1.33;;
47021;SDS011;32779;52.264;6.154;2022-08-02T16:18:59;1.90;;;0.68;;
47021;SDS011;32779;52.264;6.154;2022-08-02T16:21:25;3.40;;;0.90;;
47021;SDS011;32779;52.264;6.154;2022-08-02T16:23:52;4.45;;;0.98;;
47021;SDS011;32779;52.264;6.154;2022-08-02T16:26:19;3.55;;;1.08;;
47021;SDS011;32779;52.264;6.154;2022-08-02T16:28:45;4.80;;;0.80;;
47021;SDS011;32779;52.264;6.154;2022-08-02T16:31:11;5.78;;;1.02;;